createdAt,value
2023-01-05T00:01:19.874Z,10.87
2023-01-05T00:03:46.757Z,11.03
2023-01-05T00:06:19.098Z,11.13
2023-01-05T00:08:46.052Z,10.93
2023-01-05T00:11:31.280Z,10.10
2023-01-05T00:14:16.686Z,10.70
2023-01-05T00:17:05.084Z,10.43
2023-01-05T00:19:50.752Z,10.43
2023-01-05T00:22:38.884Z,10.53
2023-01-05T00:25:14.057Z,10.13
2023-01-05T00:27:41.742Z,9.60
2023-01-05T00:30:12.441Z,10.10
2023-01-05T00:32:39.224Z,10.17
2023-01-05T00:35:09.078Z,10.30
2023-01-05T00:37:38.160Z,9.20
2023-01-05T00:40:09.028Z,9.30
2023-01-05T00:42:38.027Z,9.27
2023-01-05T00:45:06.824Z,8.50
2023-01-05T00:47:33.572Z,8.40
2023-01-05T00:50:02.561Z,8.20
2023-01-05T00:52:29.388Z,8.17
2023-01-05T00:54:58.564Z,8.00
2023-01-05T00:57:25.366Z,7.27
2023-01-05T00:59:52.183Z,8.03
2023-01-05T01:02:19.002Z,7.33
2023-01-05T01:04:48.082Z,7.27
2023-01-05T01:07:14.870Z,7.03
2023-01-05T01:09:41.808Z,6.93
2023-01-05T01:12:08.642Z,7.43
2023-01-05T01:14:36.732Z,6.80
2023-01-05T01:17:06.101Z,6.87
2023-01-05T01:19:33.618Z,7.20
2023-01-05T01:22:01.826Z,7.57
2023-01-05T01:24:28.745Z,6.80
2023-01-05T01:26:58.176Z,6.90
2023-01-05T01:29:25.045Z,6.80
2023-01-05T01:31:52.659Z,7.67
2023-01-05T01:34:24.430Z,7.17
2023-01-05T01:36:51.302Z,6.70
2023-01-05T01:39:20.654Z,6.63
2023-01-05T01:41:51.895Z,6.27
2023-01-05T01:44:52.950Z,6.50
2023-01-05T01:47:31.645Z,6.70
2023-01-05T01:50:01.047Z,6.77
2023-01-05T01:52:28.132Z,6.67
2023-01-05T01:54:54.962Z,6.43
2023-01-05T01:57:21.759Z,6.47
2023-01-05T01:59:48.542Z,6.67
2023-01-05T02:02:15.443Z,6.47
2023-01-05T02:04:44.627Z,6.07
2023-01-05T02:07:11.532Z,6.27
2023-01-05T02:09:40.524Z,6.23
2023-01-05T02:12:12.862Z,6.33
2023-01-05T02:15:05.569Z,5.50
2023-01-05T02:17:58.093Z,5.83
2023-01-05T02:21:02.024Z,5.60
2023-01-05T02:23:46.248Z,5.67
2023-01-05T02:26:37.277Z,5.13
2023-01-05T02:29:12.261Z,4.70
2023-01-05T02:31:57.679Z,4.70
2023-01-05T02:34:36.744Z,4.63
2023-01-05T02:37:14.773Z,4.47
2023-01-05T02:39:59.312Z,4.60
2023-01-05T02:42:27.241Z,4.60
2023-01-05T02:44:54.034Z,4.70
2023-01-05T02:47:29.778Z,3.80
2023-01-05T02:50:07.796Z,4.30
2023-01-05T02:52:54.644Z,4.07
2023-01-05T02:55:30.216Z,4.13
2023-01-05T02:58:03.040Z,3.63
2023-01-05T03:00:32.900Z,4.33
2023-01-05T03:03:06.325Z,3.47
2023-01-05T03:05:36.552Z,3.50
2023-01-05T03:08:09.134Z,3.40
2023-01-05T03:10:59.955Z,3.50
2023-01-05T03:13:42.660Z,3.13
2023-01-05T03:16:19.947Z,3.50
2023-01-05T03:19:21.999Z,3.60
2023-01-05T03:22:07.136Z,3.20
2023-01-05T03:24:52.831Z,3.27
2023-01-05T03:27:38.128Z,3.10
2023-01-05T03:30:26.245Z,3.13
2023-01-05T03:33:14.512Z,3.10
2023-01-05T03:35:42.582Z,3.00
2023-01-05T03:38:18.018Z,3.20
2023-01-05T03:40:45.745Z,3.37
2023-01-05T03:43:12.642Z,3.20
2023-01-05T03:45:46.716Z,3.07
2023-01-05T03:48:15.750Z,3.30
2023-01-05T03:50:42.573Z,3.30
2023-01-05T03:53:09.347Z,3.20
2023-01-05T03:55:38.640Z,3.17
2023-01-05T03:58:08.052Z,3.00
2023-01-05T04:00:37.107Z,3.50
2023-01-05T04:03:06.671Z,2.90
2023-01-05T04:05:35.926Z,3.03
2023-01-05T04:08:05.295Z,2.93
2023-01-05T04:10:32.167Z,2.87
2023-01-05T04:12:59.002Z,3.10
2023-01-05T04:15:25.793Z,2.97
2023-01-05T04:17:52.546Z,2.30
2023-01-05T04:20:19.344Z,2.13
2023-01-05T04:22:48.241Z,2.30
2023-01-05T04:25:15.034Z,2.27
2023-01-05T04:27:44.712Z,2.60
2023-01-05T04:30:11.878Z,2.30
2023-01-05T04:32:38.670Z,2.27
2023-01-05T04:35:10.822Z,2.17
2023-01-05T04:37:38.694Z,2.10
2023-01-05T04:40:08.523Z,2.20
2023-01-05T04:42:35.353Z,1.80
2023-01-05T04:45:02.154Z,2.00
2023-01-05T04:47:28.896Z,1.60
2023-01-05T04:49:55.717Z,1.87
2023-01-05T04:52:22.530Z,1.67
2023-01-05T04:54:51.799Z,1.77
2023-01-05T04:57:20.765Z,2.17
2023-01-05T04:59:47.558Z,2.60
2023-01-05T05:02:14.693Z,2.47
2023-01-05T05:04:43.760Z,2.60
2023-01-05T05:07:10.933Z,2.73
2023-01-05T05:09:39.902Z,2.70
2023-01-05T05:12:09.019Z,3.07
2023-01-05T05:14:35.835Z,3.40
2023-01-05T05:17:02.633Z,3.30
2023-01-05T05:19:31.820Z,3.17
2023-01-05T05:22:01.146Z,3.30
2023-01-05T05:24:27.915Z,2.80
2023-01-05T05:26:57.327Z,3.30
2023-01-05T05:29:24.576Z,3.27
2023-01-05T05:31:51.742Z,2.90
2023-01-05T05:34:23.159Z,2.90
2023-01-05T05:36:49.970Z,2.50
2023-01-05T05:39:16.783Z,2.90
2023-01-05T05:41:45.849Z,3.10
2023-01-05T05:44:12.648Z,2.87
2023-01-05T05:46:39.466Z,2.73
2023-01-05T05:49:07.215Z,2.33
2023-01-05T05:51:36.355Z,2.23
2023-01-05T05:54:05.287Z,2.10
2023-01-05T05:56:32.053Z,2.10
2023-01-05T05:59:01.645Z,1.70
2023-01-05T06:01:29.063Z,2.43
2023-01-05T06:03:58.285Z,1.57
2023-01-05T06:06:29.849Z,1.50
2023-01-05T06:08:56.627Z,1.67
2023-01-05T06:11:23.367Z,1.40
2023-01-05T06:13:53.123Z,1.50
2023-01-05T06:16:22.997Z,1.60
2023-01-05T06:18:49.857Z,1.30
2023-01-05T06:21:16.661Z,1.40
2023-01-05T06:23:43.496Z,1.63
2023-01-05T06:26:10.294Z,2.07
2023-01-05T06:28:37.072Z,1.80
2023-01-05T06:31:03.914Z,1.70
2023-01-05T06:33:30.780Z,2.00
2023-01-05T06:35:58.877Z,2.00
2023-01-05T06:38:26.186Z,2.20
2023-01-05T06:40:54.663Z,1.83
2023-01-05T06:43:21.621Z,2.37
2023-01-05T06:45:50.676Z,2.20
2023-01-05T06:48:19.914Z,2.10
2023-01-05T06:50:46.672Z,2.00
2023-01-05T06:53:13.471Z,2.50
2023-01-05T06:55:42.703Z,2.13
2023-01-05T06:58:12.731Z,2.47
2023-01-05T07:00:39.523Z,2.50
2023-01-05T07:03:07.293Z,2.90
2023-01-05T07:05:36.638Z,2.30
2023-01-05T07:08:03.505Z,2.50
2023-01-05T07:10:30.385Z,2.40
2023-01-05T07:12:57.667Z,2.80
2023-01-05T07:15:24.623Z,3.10
2023-01-05T07:17:51.407Z,3.00
2023-01-05T07:20:18.305Z,2.80
2023-01-05T07:22:45.101Z,3.10
2023-01-05T07:25:11.882Z,3.47
2023-01-05T07:27:38.767Z,3.20
2023-01-05T07:30:06.251Z,3.13
2023-01-05T07:32:35.364Z,3.67
2023-01-05T07:35:02.190Z,3.37
2023-01-05T07:37:28.938Z,3.73
2023-01-05T07:39:58.245Z,3.67
2023-01-05T07:42:26.130Z,3.80
2023-01-05T07:44:52.923Z,3.67
2023-01-05T07:47:19.701Z,3.60
2023-01-05T07:49:46.718Z,3.10
2023-01-05T07:52:13.508Z,3.13
2023-01-05T07:54:40.282Z,3.30
2023-01-05T07:57:09.380Z,3.53
2023-01-05T07:59:40.765Z,3.47
2023-01-05T08:02:09.396Z,3.30
2023-01-05T08:04:36.367Z,3.57
2023-01-05T08:07:03.338Z,2.80
2023-01-05T08:09:48.656Z,3.47
2023-01-05T08:12:15.629Z,3.17
2023-01-05T08:14:42.397Z,2.90
2023-01-05T08:17:09.327Z,2.97
2023-01-05T08:19:36.091Z,3.10
2023-01-05T08:22:02.901Z,3.10
2023-01-05T08:24:29.667Z,3.10
2023-01-05T08:26:56.471Z,3.10
2023-01-05T08:29:25.394Z,3.13
2023-01-05T08:31:52.244Z,3.00
2023-01-05T08:34:21.180Z,3.10
2023-01-05T08:36:50.454Z,2.90
2023-01-05T08:39:21.764Z,3.63
2023-01-05T08:41:48.581Z,3.20
2023-01-05T08:44:15.705Z,2.87
2023-01-05T08:46:44.956Z,3.07
2023-01-05T08:49:11.753Z,3.27
2023-01-05T08:51:38.832Z,3.37
2023-01-05T08:54:05.729Z,3.63
2023-01-05T08:56:38.332Z,2.77
2023-01-05T08:59:05.984Z,3.57
2023-01-05T09:01:36.912Z,3.60
2023-01-05T09:04:03.843Z,3.57
2023-01-05T09:06:32.826Z,3.13
2023-01-05T09:08:59.702Z,3.20
2023-01-05T09:11:26.600Z,3.30
2023-01-05T09:13:55.028Z,3.30
2023-01-05T09:19:11.021Z,2.80
2023-01-05T09:21:39.696Z,2.93
2023-01-05T09:24:07.577Z,2.93
2023-01-05T09:26:34.521Z,2.70
2023-01-05T09:29:01.339Z,3.23
2023-01-05T09:31:28.193Z,2.90
2023-01-05T09:33:56.344Z,2.97
2023-01-05T09:36:24.402Z,2.70
2023-01-05T09:38:52.214Z,2.87
2023-01-05T09:41:23.298Z,2.60
2023-01-05T09:43:52.242Z,2.57
2023-01-05T09:46:30.370Z,2.70
2023-01-05T09:48:58.311Z,2.67
2023-01-05T09:51:25.364Z,2.60
2023-01-05T09:53:52.175Z,2.73
2023-01-05T09:57:08.133Z,2.37
2023-01-05T09:59:35.023Z,2.70
2023-01-05T10:02:32.452Z,2.47
2023-01-05T10:04:59.727Z,2.97
2023-01-05T10:07:42.920Z,2.50
2023-01-05T10:10:38.827Z,3.00
2023-01-05T10:13:08.874Z,2.40
2023-01-05T10:15:52.783Z,2.33
2023-01-05T10:18:22.974Z,2.73
2023-01-05T10:21:07.271Z,2.70
2023-01-05T10:23:45.556Z,2.20
2023-01-05T10:26:12.320Z,2.50
2023-01-05T10:28:46.531Z,2.30
2023-01-05T10:31:22.881Z,2.57
2023-01-05T10:33:56.778Z,2.90
2023-01-05T10:37:09.077Z,3.67
2023-01-05T10:39:39.682Z,3.87
2023-01-05T10:42:10.785Z,3.30
2023-01-05T10:44:55.181Z,3.70
2023-01-05T10:47:23.201Z,4.07
2023-01-05T10:49:50.759Z,3.80
2023-01-05T10:52:21.850Z,4.00
2023-01-05T10:55:04.428Z,3.70
2023-01-05T10:57:36.672Z,3.93
2023-01-05T11:00:20.889Z,4.27
2023-01-05T11:03:00.835Z,4.20
2023-01-05T11:05:37.292Z,3.83
2023-01-05T11:08:07.506Z,3.90
2023-01-05T11:10:41.671Z,3.57
2023-01-05T11:13:19.131Z,3.40
2023-01-05T11:16:11.628Z,3.70
2023-01-05T11:18:54.515Z,3.60
2023-01-05T11:21:25.178Z,3.37
2023-01-05T11:23:58.947Z,3.70
2023-01-05T11:26:31.182Z,4.57
2023-01-05T11:29:08.247Z,3.70
2023-01-05T11:31:48.116Z,4.03
2023-01-05T11:34:23.833Z,3.43
2023-01-05T11:37:05.803Z,3.90
2023-01-05T11:39:57.669Z,3.80
2023-01-05T11:42:25.995Z,3.50
2023-01-05T11:44:56.263Z,3.13
2023-01-05T11:47:43.228Z,3.17
2023-01-05T11:50:14.000Z,2.77
2023-01-05T11:52:42.343Z,3.13
2023-01-05T11:55:23.991Z,3.10
2023-01-05T11:58:00.051Z,2.90
2023-01-05T12:00:27.206Z,2.50
2023-01-05T12:03:20.382Z,2.70
2023-01-05T12:05:54.921Z,2.90
2023-01-05T12:08:36.384Z,2.67
2023-01-05T12:11:29.357Z,2.97
2023-01-05T12:14:15.637Z,2.37
2023-01-05T12:16:47.268Z,2.67
2023-01-05T12:19:26.291Z,2.50
2023-01-05T12:22:20.434Z,2.23
2023-01-05T12:24:53.056Z,3.20
2023-01-05T12:27:32.923Z,3.10
2023-01-05T12:31:53.360Z,2.60
2023-01-05T12:36:09.871Z,2.93
2023-01-05T12:38:43.456Z,2.87
2023-01-05T12:41:47.431Z,2.67
2023-01-05T12:44:29.544Z,2.37
2023-01-05T12:47:15.166Z,2.67
2023-01-05T12:49:58.007Z,2.63
2023-01-05T12:52:41.923Z,3.00
2023-01-05T12:55:17.867Z,2.70
2023-01-05T12:57:48.948Z,3.03
2023-01-05T13:00:17.807Z,3.43
2023-01-05T13:03:02.506Z,3.23
2023-01-05T13:05:51.893Z,2.60
2023-01-05T13:08:21.615Z,2.87
2023-01-05T13:11:07.234Z,3.13
2023-01-05T13:13:43.341Z,2.60
2023-01-05T13:16:18.085Z,2.80
2023-01-05T13:18:51.928Z,2.87
2023-01-05T13:21:20.113Z,2.57
2023-01-05T13:23:57.274Z,2.07
2023-01-05T13:26:24.063Z,1.77
2023-01-05T13:29:01.483Z,1.77
2023-01-05T13:31:46.392Z,1.97
2023-01-05T13:34:28.312Z,1.70
2023-01-05T13:37:20.235Z,1.70
2023-01-05T13:40:00.357Z,1.77
2023-01-05T13:42:48.266Z,2.43
2023-01-05T13:45:43.454Z,2.20
2023-01-05T13:51:11.855Z,1.90
2023-01-05T13:53:39.904Z,2.47
2023-01-05T13:56:28.438Z,2.40
2023-01-05T13:59:09.590Z,2.20
2023-01-05T14:01:45.570Z,2.17
2023-01-05T14:04:26.047Z,2.47
2023-01-05T14:06:58.368Z,2.60
2023-01-05T14:09:31.193Z,2.20
2023-01-05T14:12:15.878Z,2.00
2023-01-05T14:15:06.037Z,1.93
2023-01-05T14:17:53.097Z,2.30
2023-01-05T14:20:47.386Z,2.07
2023-01-05T14:23:28.519Z,2.23
2023-01-05T14:26:02.187Z,1.97
2023-01-05T14:28:29.065Z,2.40
2023-01-05T14:31:16.715Z,2.07
2023-01-05T14:33:49.865Z,2.27
2023-01-05T14:36:50.454Z,2.63
2023-01-05T14:39:17.941Z,2.60
2023-01-05T14:42:04.217Z,2.27
2023-01-05T14:44:43.843Z,2.20
2023-01-05T14:47:10.680Z,2.63
2023-01-05T14:49:55.568Z,2.47
2023-01-05T14:52:53.463Z,2.07
2023-01-05T14:55:39.013Z,2.27
2023-01-05T14:58:14.882Z,3.10
2023-01-05T15:00:53.165Z,2.97
2023-01-05T15:03:56.625Z,2.67
2023-01-05T15:06:48.236Z,2.67
2023-01-05T15:09:21.740Z,2.80
2023-01-05T15:11:57.756Z,3.33
2023-01-05T15:14:36.033Z,3.17
2023-01-05T15:17:21.660Z,3.10
2023-01-05T15:20:23.894Z,3.10
2023-01-05T15:23:04.070Z,2.70
2023-01-05T15:26:08.515Z,3.00
2023-01-05T15:28:39.458Z,2.73
2023-01-05T15:31:24.827Z,3.10
2023-01-05T15:34:17.549Z,2.80
2023-01-05T15:36:53.323Z,3.00
2023-01-05T15:39:36.648Z,2.80
2023-01-05T15:42:09.759Z,3.50
2023-01-05T15:44:40.506Z,2.47
2023-01-05T15:47:10.057Z,2.93
2023-01-05T15:49:37.032Z,2.43
2023-01-05T15:52:08.489Z,3.63
2023-01-05T15:54:41.194Z,2.97
2023-01-05T15:57:21.084Z,2.93
2023-01-05T15:59:52.561Z,3.40
2023-01-05T16:02:24.960Z,3.40
2023-01-05T16:05:14.821Z,3.77
2023-01-05T16:07:54.487Z,3.30
2023-01-05T16:10:41.993Z,3.27
2023-01-05T16:13:22.039Z,3.90
2023-01-05T16:15:52.805Z,3.43
2023-01-05T16:18:27.398Z,3.53
2023-01-05T16:20:54.653Z,3.40
2023-01-05T16:23:24.352Z,3.27
2023-01-05T16:25:56.149Z,3.30
2023-01-05T16:28:23.594Z,3.23
2023-01-05T16:30:53.932Z,2.90
2023-01-05T16:33:36.487Z,2.80
2023-01-05T16:36:27.889Z,2.63
2023-01-05T16:39:12.191Z,2.50
2023-01-05T16:42:01.409Z,2.67
2023-01-05T16:44:36.132Z,2.40
2023-01-05T16:47:10.046Z,2.50
2023-01-05T16:49:49.891Z,2.70
2023-01-05T16:52:27.265Z,2.50
2023-01-05T16:55:31.371Z,2.67
2023-01-05T16:57:59.186Z,2.40
2023-01-05T17:00:25.923Z,2.10
2023-01-05T17:02:56.469Z,1.80
2023-01-05T17:05:24.979Z,1.77
2023-01-05T17:08:06.387Z,1.87
2023-01-05T17:10:35.631Z,2.40
2023-01-05T17:13:05.814Z,2.27
2023-01-05T17:15:34.384Z,1.90
2023-01-05T17:18:01.769Z,1.90
2023-01-05T17:23:14.954Z,1.63
2023-01-05T17:25:43.718Z,1.97
2023-01-05T17:30:46.345Z,1.93
2023-01-05T17:33:13.234Z,1.87
2023-01-05T17:35:42.727Z,1.90
2023-01-05T17:38:11.499Z,2.00
2023-01-05T17:40:38.444Z,2.03
2023-01-05T17:43:05.267Z,1.90
2023-01-05T17:45:32.213Z,2.37
2023-01-05T17:48:00.395Z,2.80
2023-01-05T17:53:03.123Z,2.30
2023-01-05T17:55:32.520Z,2.67
2023-01-05T17:57:59.337Z,2.20
2023-01-05T18:00:30.626Z,2.33
2023-01-05T18:02:57.483Z,2.37
2023-01-05T18:05:24.517Z,2.60
2023-01-05T18:07:51.476Z,1.90
2023-01-05T18:10:25.931Z,2.20
2023-01-05T18:12:55.015Z,2.17
2023-01-05T18:15:24.203Z,2.10
2023-01-05T18:17:51.008Z,1.90
2023-01-05T18:20:19.967Z,2.33
2023-01-05T18:22:50.357Z,2.23
2023-01-05T18:25:19.364Z,2.27
2023-01-05T18:27:46.270Z,2.07
2023-01-05T18:30:13.402Z,2.10
2023-01-05T18:32:44.976Z,2.20
2023-01-05T18:35:11.951Z,2.00
2023-01-05T18:37:39.999Z,2.20
2023-01-05T18:40:07.500Z,2.23
2023-01-05T18:42:35.117Z,2.10
2023-01-05T18:45:09.199Z,1.83
2023-01-05T18:47:48.295Z,2.00
2023-01-05T18:50:17.566Z,2.13
2023-01-05T18:52:47.989Z,2.47
2023-01-05T18:55:14.793Z,2.43
2023-01-05T18:57:41.572Z,2.90
2023-01-05T19:00:11.006Z,2.40
2023-01-05T19:02:37.868Z,2.80
2023-01-05T19:05:04.950Z,2.37
2023-01-05T19:07:32.366Z,2.20
2023-01-05T19:09:59.126Z,2.20
2023-01-05T19:12:28.019Z,2.10
2023-01-05T19:14:54.803Z,1.83
2023-01-05T19:17:21.547Z,1.73
2023-01-05T19:19:48.356Z,2.00
2023-01-05T19:22:17.600Z,2.00
2023-01-05T19:24:46.513Z,2.20
2023-01-05T19:27:13.268Z,2.30
2023-01-05T19:29:42.179Z,2.20
2023-01-05T19:32:08.963Z,2.20
2023-01-05T19:34:38.474Z,2.30
2023-01-05T19:37:06.360Z,2.00
2023-01-05T19:39:36.922Z,2.40
2023-01-05T19:42:03.768Z,1.90
2023-01-05T19:44:33.183Z,2.23
2023-01-05T19:46:59.983Z,2.20
2023-01-05T19:49:27.446Z,2.40
2023-01-05T19:51:54.351Z,2.50
2023-01-05T19:54:22.482Z,2.27
2023-01-05T19:56:49.585Z,2.10
2023-01-05T19:59:18.312Z,2.27
2023-01-05T20:01:47.574Z,2.77
2023-01-05T20:04:14.445Z,2.90
2023-01-05T20:06:42.694Z,2.57
2023-01-05T20:09:14.144Z,2.77
2023-01-05T20:11:44.214Z,2.60
2023-01-05T20:14:35.386Z,2.43
2023-01-05T20:17:09.207Z,2.57
2023-01-05T20:19:38.781Z,2.83
2023-01-05T20:22:07.557Z,2.97
2023-01-05T20:24:38.885Z,2.30
2023-01-05T20:27:10.056Z,2.93
2023-01-05T20:29:37.194Z,2.70
2023-01-05T20:32:05.368Z,2.37
2023-01-05T20:34:34.981Z,2.70
2023-01-05T20:37:04.753Z,2.63
2023-01-05T20:39:31.728Z,3.23
2023-01-05T20:42:04.782Z,2.73
2023-01-05T20:44:34.158Z,2.90
2023-01-05T20:47:01.424Z,2.70
2023-01-05T20:49:28.240Z,3.00
2023-01-05T20:51:57.307Z,2.70
2023-01-05T20:54:26.634Z,2.60
2023-01-05T20:56:53.454Z,2.67
2023-01-05T20:59:25.031Z,3.03
2023-01-05T21:01:52.059Z,2.97
2023-01-05T21:04:19.601Z,2.70
2023-01-05T21:06:46.945Z,3.10
2023-01-05T21:09:16.273Z,2.30
2023-01-05T21:11:43.085Z,2.23
2023-01-05T21:14:13.093Z,2.57
2023-01-05T21:16:44.880Z,2.23
2023-01-05T21:19:12.845Z,2.40
2023-01-05T21:21:39.623Z,2.20
2023-01-05T21:24:09.295Z,2.40
2023-01-05T21:26:36.226Z,2.60
2023-01-05T21:29:10.269Z,2.30
2023-01-05T21:31:38.119Z,2.10
2023-01-05T21:34:07.560Z,2.23
2023-01-05T21:36:38.416Z,2.33
2023-01-05T21:39:08.616Z,2.23
2023-01-05T21:41:54.865Z,3.20
2023-01-05T21:44:26.218Z,2.40
2023-01-05T21:46:57.345Z,2.57
2023-01-05T21:49:24.184Z,2.63
2023-01-05T21:52:09.346Z,2.97
2023-01-05T21:54:54.616Z,2.90
2023-01-05T21:57:23.956Z,3.07
2023-01-05T21:59:54.130Z,2.93
2023-01-05T22:02:21.007Z,2.97
2023-01-05T22:04:52.546Z,2.90
2023-01-05T22:07:19.333Z,2.70
2023-01-05T22:09:48.610Z,2.90
2023-01-05T22:12:15.394Z,2.30
2023-01-05T22:14:45.515Z,2.40
2023-01-05T22:17:12.275Z,2.27
2023-01-05T22:19:39.073Z,2.70
2023-01-05T22:22:05.916Z,2.20
2023-01-05T22:24:35.172Z,2.50
2023-01-05T22:27:01.952Z,2.40
2023-01-05T22:29:32.007Z,2.80
2023-01-05T22:32:00.586Z,2.70
2023-01-05T22:34:28.690Z,3.17
2023-01-05T22:36:55.480Z,2.60
2023-01-05T22:39:24.891Z,2.90
2023-01-05T22:41:56.390Z,3.73
2023-01-05T22:44:23.208Z,3.57
2023-01-05T22:46:49.951Z,3.43
2023-01-05T22:49:16.863Z,3.60
2023-01-05T22:51:44.840Z,3.43
2023-01-05T22:54:13.932Z,3.70
2023-01-05T22:56:40.822Z,3.73
2023-01-05T22:59:10.132Z,3.60
2023-01-05T23:01:40.787Z,3.50
2023-01-05T23:04:10.276Z,3.20
2023-01-05T23:06:41.776Z,3.70
2023-01-05T23:09:12.075Z,3.40
2023-01-05T23:11:41.755Z,3.07
2023-01-05T23:14:09.796Z,3.30
2023-01-05T23:16:36.725Z,3.70
2023-01-05T23:19:04.587Z,3.20
2023-01-05T23:21:31.564Z,3.40
2023-01-05T23:23:58.597Z,3.17
2023-01-05T23:26:26.435Z,3.10
2023-01-05T23:28:57.982Z,3.30
2023-01-05T23:31:24.763Z,3.00
2023-01-05T23:33:51.615Z,3.23
2023-01-05T23:36:18.956Z,2.93
2023-01-05T23:38:45.955Z,3.20
2023-01-05T23:41:15.789Z,3.23
2023-01-05T23:43:45.646Z,3.00
2023-01-05T23:46:16.417Z,3.20
2023-01-05T23:48:45.878Z,3.23
2023-01-05T23:51:16.472Z,3.63
2023-01-05T23:53:50.703Z,3.47
2023-01-05T23:56:22.404Z,3.80
2023-01-05T23:58:49.395Z,3.50
